Peotone Weather
Peotone-Weather Station Historical Data
Daily Summary for February 27, 2020 Units:  English    Metric   Both
Daily Weekly Monthly Yearly Custom
  High: Low: Average:
Temperature: 29.9 °F 18.6 °F 24.8 °F
Dew Point: 24.1 °F 13.4 °F 18.5 °F
Humidity: 85% 68% 77%
Wind Speed: 13.5mph 0.2mph 6.8mph
Wind Gust: 23mph - -
Wind- - WNW
Pressure: 30.15 in 30.08 in -
Precipitation: 0.00 in    
Historical Graphs
 
 
Tabular Data for February 27, 2020
Time Temperature Dew Point Pressure Wind Wind Speed Wind Gust Humidity Rainfall Rate (Hourly) solar
00:04 24.8 °F 19.1 °F 30.15 in WNW 3.7 mph 8.1 mph 78.5% 0.00 in 0 W/m2
00:09 24.8 °F 19.2 °F 30.15 in WNW 4.6 mph 8.1 mph 79% 0.00 in 0 W/m2
00:14 24.8 °F 19.2 °F 30.15 in WNW 5.4 mph 8.1 mph 79% 0.00 in 0 W/m2
00:19 24.8 °F 19.2 °F 30.15 in WNW 6.9 mph 11.5 mph 79% 0.00 in 0 W/m2
00:24 24.8 °F 19.2 °F 30.15 in WNW 6 mph 11.5 mph 78.9% 0.00 in 0 W/m2
00:29 24.8 °F 19.1 °F 30.15 in WNW 8.2 mph 10.3 mph 78.5% 0.00 in 0 W/m2
00:34 24.8 °F 18.9 °F 30.15 in WNW 8.6 mph 18.4 mph 78% 0.00 in 0 W/m2
00:39 24.8 °F 18.9 °F 30.15 in WNW 7.5 mph 18.4 mph 78% 0.00 in 0 W/m2
00:44 24.8 °F 18.7 °F 30.15 in WNW 7 mph 11.5 mph 77.2% 0.00 in 0 W/m2
00:49 24.8 °F 18.6 °F 30.15 in WNW 7.3 mph 13.8 mph 77% 0.00 in 0 W/m2
00:54 24.8 °F 18.6 °F 30.15 in WNW 7.2 mph 13.8 mph 77% 0.00 in 0 W/m2
00:59 24.8 °F 18.6 °F 30.14 in WNW 6.7 mph 11.5 mph 77% 0.00 in 0 W/m2
01:04 24.8 °F 18.6 °F 30.14 in WNW 6.5 mph 10.3 mph 77% 0.00 in 0 W/m2
01:09 24.9 °F 18.7 °F 30.14 in WNW 5.8 mph 9.2 mph 77% 0.00 in 0 W/m2
01:14 24.8 °F 18.5 °F 30.14 in WNW 5.9 mph 9.2 mph 76.4% 0.00 in 0 W/m2
01:19 24.8 °F 18.3 °F 30.14 in WNW 6.4 mph 11.5 mph 76% 0.00 in 0 W/m2
01:24 24.8 °F 18.3 °F 30.14 in NW 6.8 mph 11.5 mph 76% 0.00 in 0 W/m2
01:29 24.8 °F 18.1 °F 30.14 in WNW 6.5 mph 10.3 mph 75.4% 0.00 in 0 W/m2
01:34 24.8 °F 18 °F 30.14 in WNW 6.2 mph 9.2 mph 75% 0.00 in 0 W/m2
01:39 24.8 °F 18 °F 30.13 in WNW 5.2 mph 8.1 mph 75% 0.00 in 0 W/m2
01:44 24.8 °F 18 °F 30.13 in WNW 5.6 mph 8.1 mph 75% 0.00 in 0 W/m2
01:49 24.8 °F 18 °F 30.13 in WNW 5.3 mph 9.2 mph 75% 0.00 in 0 W/m2
01:54 24.8 °F 18 °F 30.13 in WNW 8 mph 12.6 mph 75% 0.00 in 0 W/m2
01:59 24.8 °F 17.9 °F 30.13 in WNW 8.7 mph 13.8 mph 74.6% 0.00 in 0 W/m2
02:04 24.8 °F 17.7 °F 30.13 in NW 8 mph 13.8 mph 74% 0.00 in 0 W/m2
02:09 24.9 °F 17.8 °F 30.13 in WNW 7 mph 12.6 mph 74% 0.00 in 0 W/m2
02:14 24.9 °F 17.8 °F 30.13 in NW 5.1 mph 10.3 mph 74% 0.00 in 0 W/m2
02:19 24.9 °F 17.8 °F 30.13 in NW 6 mph 9.2 mph 74% 0.00 in 0 W/m2
02:24 24.9 °F 18 °F 30.13 in WNW 5.5 mph 9.2 mph 74.6% 0.00 in 0 W/m2
02:29 24.9 °F 18.1 °F 30.13 in WNW 5 mph 8.1 mph 75% 0.00 in 0 W/m2
02:34 24.9 °F 18 °F 30.13 in WNW 4.9 mph 8.1 mph 74.8% 0.00 in 0 W/m2
02:39 24.9 °F 18.1 °F 30.13 in WNW 3.9 mph 8.1 mph 75% 0.00 in 0 W/m2
02:44 24.8 °F 18 °F 30.13 in WNW 5.5 mph 8.1 mph 75% 0.00 in 0 W/m2
02:49 24.8 °F 18.1 °F 30.13 in WNW 5.3 mph 9.2 mph 75.2% 0.00 in 0 W/m2
02:54 24.8 °F 18.3 °F 30.12 in West 4.6 mph 9.2 mph 76% 0.00 in 0 W/m2
02:59 24.8 °F 18.3 °F 30.12 in NW 4.5 mph 6.9 mph 76% 0.00 in 0 W/m2
03:04 24.8 °F 18.3 °F 30.12 in WNW 4.3 mph 8.1 mph 76% 0.00 in 0 W/m2
03:09 24.7 °F 18.2 °F 30.12 in WNW 3.3 mph 8.1 mph 76% 0.00 in 0 W/m2
03:14 24.6 °F 18.2 °F 30.12 in WNW 2.9 mph 5.8 mph 76.2% 0.00 in 0 W/m2
03:19 24.6 °F 18.4 °F 30.12 in WNW 2.7 mph 4.6 mph 77% 0.00 in 0 W/m2
03:24 24.5 °F 18.3 °F 30.12 in WNW 2.9 mph 4.6 mph 77% 0.00 in 0 W/m2
03:29 24.5 °F 18.3 °F 30.11 in WNW 2.6 mph 4.6 mph 77% 0.00 in 0 W/m2
03:34 24.4 °F 18.2 °F 30.11 in WNW 2.1 mph 5.8 mph 77% 0.00 in 0 W/m2
03:39 24.4 °F 18.2 °F 30.11 in WNW 3.2 mph 5.8 mph 77% 0.00 in 0 W/m2
03:44 24.4 °F 18.3 °F 30.11 in WNW 3 mph 5.8 mph 77.2% 0.00 in 0 W/m2
03:49 24.4 °F 18.4 °F 30.11 in WNW 3.1 mph 4.6 mph 77.8% 0.00 in 0 W/m2
03:54 24.4 °F 18.5 °F 30.11 in West 3 mph 4.6 mph 78% 0.00 in 0 W/m2
03:59 24.4 °F 18.5 °F 30.11 in West 2.4 mph 4.6 mph 78% 0.00 in 0 W/m2
04:04 24.4 °F 18.6 °F 30.11 in West 2.1 mph 4.6 mph 78.5% 0.00 in 0 W/m2
04:09 24.4 °F 18.8 °F 30.11 in WNW 1.9 mph 3.4 mph 79% 0.00 in 0 W/m2
04:14 24.4 °F 18.8 °F 30.11 in West 2.8 mph 4.6 mph 79% 0.00 in 0 W/m2
04:19 24.5 °F 18.9 °F 30.11 in WNW 3.3 mph 5.8 mph 79% 0.00 in 0 W/m2
04:24 24.5 °F 18.9 °F 30.11 in West 3.9 mph 6.9 mph 79% 0.00 in 0 W/m2
04:29 24.6 °F 19.2 °F 30.11 in West 7.8 mph 14.9 mph 79.7% 0.00 in 0 W/m2
04:34 24.7 °F 19.4 °F 30.11 in WNW 6.7 mph 14.9 mph 80% 0.00 in 0 W/m2
04:39 24.8 °F 19.5 °F 30.11 in WNW 6.6 mph 11.5 mph 80% 0.00 in 0 W/m2
04:44 24.8 °F 19.8 °F 30.11 in WNW 7.9 mph 11.5 mph 81% 0.00 in 0 W/m2
04:49 24.8 °F 19.9 °F 30.11 in WNW 7.9 mph 12.6 mph 81.4% 0.00 in 0 W/m2
04:54 24.8 °F 20.1 °F 30.11 in WNW 6.7 mph 12.6 mph 82.3% 0.00 in 0 W/m2
04:59 24.7 °F 20.3 °F 30.11 in WNW 5.5 mph 12.6 mph 83% 0.00 in 0 W/m2
05:04 24.6 °F 20.4 °F 30.11 in WNW 5 mph 9.2 mph 83.5% 0.00 in 0 W/m2
05:09 24.5 °F 20.4 °F 30.11 in West 5.1 mph 9.2 mph 84% 0.00 in 0 W/m2
05:14 24.5 °F 20.4 °F 30.11 in West 4.6 mph 8.1 mph 84% 0.00 in 0 W/m2
05:19 24.4 °F 20.3 °F 30.11 in West 5 mph 8.1 mph 84% 0.00 in 0 W/m2
05:24 24.4 °F 20.5 °F 30.11 in WSW 5.6 mph 8.1 mph 84.5% 0.00 in 0 W/m2
05:29 24.4 °F 20.6 °F 30.11 in West 9.1 mph 14.9 mph 84.9% 0.00 in 0 W/m2
05:34 24.2 °F 20.1 °F 30.11 in West 8.7 mph 14.9 mph 84.2% 0.00 in 0 W/m2
05:39 23.9 °F 19.8 °F 30.11 in West 7.2 mph 13.8 mph 84% 0.00 in 0 W/m2
05:44 23.5 °F 19.3 °F 30.11 in West 6.5 mph 11.5 mph 83.5% 0.00 in 0 W/m2
05:49 23.2 °F 18.8 °F 30.11 in West 5.8 mph 10.3 mph 83% 0.00 in 0 W/m2
05:54 22.9 °F 18.6 °F 30.11 in West 6.7 mph 10.3 mph 83.2% 0.00 in 0 W/m2
05:59 22.6 °F 18.2 °F 30.11 in West 5.7 mph 9.2 mph 83% 0.00 in 0 W/m2
06:04 22.2 °F 18 °F 30.11 in West 5.7 mph 9.2 mph 83.5% 0.00 in 0 W/m2
06:09 21.9 °F 17.6 °F 30.11 in West 6.1 mph 9.2 mph 83.5% 0.00 in 0 W/m2
06:14 21.6 °F 17.5 °F 30.11 in West 6.4 mph 9.2 mph 84% 0.00 in 0 W/m2
06:19 21.4 °F 17.3 °F 30.12 in West 7 mph 10.3 mph 84% 0.00 in 0 W/m2
06:24 21.2 °F 17.1 °F 30.12 in West 6.9 mph 10.3 mph 84% 0.00 in 0 W/m2
06:29 20.9 °F 16.8 °F 30.12 in West 6.8 mph 10.3 mph 84% 0.00 in 0 W/m2
06:34 20.7 °F 16.6 °F 30.12 in West 7.4 mph 10.3 mph 84% 0.00 in 5 W/m2
06:39 20.4 °F 16.4 °F 30.12 in West 6.8 mph 10.3 mph 84% 0.00 in 7 W/m2
06:44 20.2 °F 16.2 °F 30.12 in West 7.4 mph 11.5 mph 84% 0.00 in 11 W/m2
06:49 20.1 °F 16 °F 30.12 in West 7.6 mph 11.5 mph 84% 0.00 in 12 W/m2
06:54 19.9 °F 15.9 °F 30.12 in West 6.2 mph 11.5 mph 84% 0.00 in 19 W/m2
06:59 19.9 °F 15.9 °F 30.12 in West 7 mph 11.5 mph 84% 0.00 in 21 W/m2
07:04 19.8 °F 15.9 °F 30.12 in West 7 mph 11.5 mph 84.5% 0.00 in 26 W/m2
07:09 19.9 °F 16.1 °F 30.12 in West 6.7 mph 10.3 mph 85% 0.00 in 32 W/m2
07:14 20 °F 16.2 °F 30.12 in West 7.4 mph 10.3 mph 85% 0.00 in 35 W/m2
07:19 20.1 °F 16.2 °F 30.13 in West 9 mph 12.6 mph 84.5% 0.00 in 44 W/m2
07:24 20.2 °F 16.2 °F 30.13 in West 7.3 mph 12.6 mph 84.1% 0.00 in 53 W/m2
07:29 20.5 °F 16.4 °F 30.13 in West 7 mph 12.6 mph 84% 0.00 in 90 W/m2
07:34 20.6 °F 16.5 °F 30.13 in West 8.4 mph 13.8 mph 84% 0.00 in 67 W/m2
07:39 20.8 °F 16.7 °F 30.13 in West 7.8 mph 13.8 mph 84% 0.00 in 88 W/m2
07:44 21 °F 16.9 °F 30.13 in West 8.1 mph 12.6 mph 83.9% 0.00 in 86 W/m2
07:49 21.2 °F 16.9 °F 30.13 in West 7.1 mph 12.6 mph 83.2% 0.00 in 127 W/m2
07:54 21.4 °F 17.1 °F 30.13 in WSW 6.2 mph 11.5 mph 83% 0.00 in 118 W/m2
07:59 21.6 °F 17.2 °F 30.13 in West 7.6 mph 10.3 mph 83% 0.00 in 142 W/m2
08:04 21.8 °F 17.4 °F 30.13 in West 6.6 mph 10.3 mph 83% 0.00 in 174 W/m2
08:09 22 °F 17.6 °F 30.13 in West 6.9 mph 10.3 mph 83% 0.00 in 146 W/m2
08:14 22.1 °F 17.7 °F 30.13 in West 7.4 mph 12.6 mph 83% 0.00 in 234 W/m2
08:19 22.4 °F 17.9 °F 30.14 in West 8.1 mph 12.6 mph 82.8% 0.00 in 230 W/m2
08:24 22.7 °F 18 °F 30.14 in West 8.4 mph 11.5 mph 82% 0.00 in 290 W/m2
08:29 23 °F 18.1 °F 30.13 in West 7.2 mph 12.6 mph 81.2% 0.00 in 338 W/m2
08:34 23.3 °F 18.2 °F 30.13 in West 8.9 mph 12.6 mph 80.7% 0.00 in 338 W/m2
08:39 23.5 °F 18.1 °F 30.14 in West 10 mph 14.9 mph 79.7% 0.00 in 359 W/m2
08:44 23.7 °F 18.1 °F 30.14 in West 9.8 mph 16.1 mph 79% 0.00 in 387 W/m2
08:49 24 °F 18.3 °F 30.14 in West 9.2 mph 16.1 mph 78.6% 0.00 in 367 W/m2
08:54 24.2 °F 18.1 °F 30.14 in West 9.9 mph 16.1 mph 77.5% 0.00 in 295 W/m2
08:59 24.4 °F 18.2 °F 30.13 in WSW 9.7 mph 16.1 mph 77% 0.00 in 146 W/m2
09:04 24.6 °F 18.1 °F 30.13 in West 11 mph 16.1 mph 76.1% 0.00 in 350 W/m2
09:09 24.7 °F 17.9 °F 30.14 in West 10.8 mph 16.1 mph 75.2% 0.00 in 418 W/m2
09:14 24.8 °F 17.8 °F 30.14 in West 10.9 mph 16.1 mph 74.4% 0.00 in 394 W/m2
09:19 24.7 °F 18.1 °F 30.14 in West 8.2 mph 16.1 mph 75.7% 0.00 in 149 W/m2
09:24 25 °F 18.8 °F 30.14 in West 8.6 mph 13.8 mph 77.2% 0.00 in 120 W/m2
09:29 25.5 °F 19.1 °F 30.14 in West 10.4 mph 14.9 mph 76.3% 0.00 in 220 W/m2
09:34 26.2 °F 19.5 °F 30.14 in WSW 10.5 mph 14.9 mph 75.3% 0.00 in 306 W/m2
09:39 26 °F 19.2 °F 30.14 in WSW 10.9 mph 17.2 mph 75% 0.00 in 302 W/m2
09:44 25.9 °F 19.2 °F 30.14 in West 9.7 mph 17.2 mph 75.3% 0.00 in 315 W/m2
09:49 25.9 °F 19.1 °F 30.13 in WSW 9.1 mph 13.8 mph 75% 0.00 in 330 W/m2
09:54 26 °F 19.2 °F 30.13 in WSW 9.5 mph 17.2 mph 75.1% 0.00 in 332 W/m2
09:59 25.7 °F 19.1 °F 30.13 in West 10.2 mph 17.2 mph 75.8% 0.00 in 332 W/m2
10:04 25.7 °F 19.3 °F 30.13 in WSW 9.7 mph 17.2 mph 76.1% 0.00 in 239 W/m2
10:09 25.6 °F 18.9 °F 30.13 in WSW 9.8 mph 16.1 mph 75.4% 0.00 in 113 W/m2
10:14 25.8 °F 18.8 °F 30.13 in West 12.3 mph 17.2 mph 74.2% 0.00 in 183 W/m2
10:19 25.9 °F 18.2 °F 30.13 in WSW 10.7 mph 17.2 mph 72.1% 0.00 in 364 W/m2
10:24 26.1 °F 18.1 °F 30.13 in WSW 11.3 mph 18.4 mph 71.4% 0.00 in 383 W/m2
10:29 26.4 °F 18.8 °F 30.13 in West 8.5 mph 18.4 mph 72.9% 0.00 in 388 W/m2
10:34 27 °F 19.2 °F 30.13 in WSW 10.9 mph 17.2 mph 72.1% 0.00 in 413 W/m2
10:39 27 °F 18.2 °F 30.13 in West 10.8 mph 17.2 mph 69% 0.00 in 376 W/m2
10:44 27.5 °F 18.8 °F 30.13 in WSW 9.4 mph 17.2 mph 69.2% 0.00 in 410 W/m2
10:49 28.4 °F 19.3 °F 30.12 in West 9.5 mph 16.1 mph 68.2% 0.00 in 522 W/m2
10:54 28.7 °F 19.5 °F 30.12 in West 10.6 mph 17.2 mph 68.2% 0.00 in 547 W/m2
10:59 28.4 °F 19.2 °F 30.12 in West 8.2 mph 17.2 mph 68% 0.00 in 450 W/m2
11:04 28.4 °F 19.7 °F 30.12 in West 12.5 mph 16.1 mph 69.5% 0.00 in 411 W/m2
11:09 28.1 °F 19.5 °F 30.12 in West 11.9 mph 19.5 mph 69.5% 0.00 in 814 W/m2
11:14 28.7 °F 20.3 °F 30.12 in West 11.7 mph 19.5 mph 70.2% 0.00 in 838 W/m2
11:19 29.5 °F 20.9 °F 30.12 in WNW 10.8 mph 20.7 mph 70.2% 0.00 in 858 W/m2
11:24 29.2 °F 20.3 °F 30.12 in West 13 mph 23 mph 68.9% 0.00 in 431 W/m2
11:29 28.5 °F 19.7 °F 30.12 in West 13.5 mph 23 mph 69.2% 0.00 in 524 W/m2
11:34 28.2 °F 19.7 °F 30.12 in West 12.4 mph 20.7 mph 69.9% 0.00 in 483 W/m2
11:39 28.4 °F 20.2 °F 30.12 in West 12.8 mph 18.4 mph 70.9% 0.00 in 457 W/m2
11:44 28.4 °F 20.2 °F 30.12 in WSW 12.1 mph 18.4 mph 71% 0.00 in 464 W/m2
11:49 28.4 °F 20.1 °F 30.12 in WSW 13.2 mph 21.9 mph 70.8% 0.00 in 438 W/m2
11:54 28.1 °F 19.9 °F 30.11 in WSW 12.3 mph 21.9 mph 71% 0.00 in 413 W/m2
11:59 28.2 °F 20.1 °F 30.11 in West 10.5 mph 18.4 mph 71.3% 0.00 in 406 W/m2
12:04 28.1 °F 19.9 °F 30.11 in West 11.5 mph 17.2 mph 71% 0.00 in 418 W/m2
12:09 28.1 °F 19.9 °F 30.11 in West 11.9 mph 19.5 mph 70.8% 0.00 in 446 W/m2
12:14 28.4 °F 20.1 °F 30.11 in West 11.3 mph 19.5 mph 70.9% 0.00 in 417 W/m2
12:19 28.6 °F 20.5 °F 30.10 in WSW 9.4 mph 17.2 mph 71.4% 0.00 in 461 W/m2
12:24 28.6 °F 20.1 °F 30.10 in West 11 mph 16.1 mph 70.2% 0.00 in 371 W/m2
12:29 28.3 °F 20 °F 30.10 in West 11.5 mph 17.2 mph 70.5% 0.00 in 332 W/m2
12:34 28.3 °F 19.8 °F 30.10 in WSW 10.7 mph 17.2 mph 70.2% 0.00 in 357 W/m2
12:39 28.3 °F 20.1 °F 30.10 in WSW 8.8 mph 14.9 mph 71% 0.00 in 292 W/m2
12:44 28.1 °F 20.2 °F 30.09 in WSW 9 mph 13.8 mph 71.9% 0.00 in 269 W/m2
12:49 28 °F 20.5 °F 30.09 in West 10.1 mph 14.9 mph 73% 0.00 in 271 W/m2
12:54 27.8 °F 20.4 °F 30.09 in West 11.1 mph 14.9 mph 73.3% 0.00 in 272 W/m2
12:59 27.8 °F 20.5 °F 30.09 in West 10.9 mph 17.2 mph 73.8% 0.00 in 267 W/m2
13:04 27.8 °F 20.4 °F 30.09 in West 11.7 mph 17.2 mph 73.5% 0.00 in 272 W/m2
13:09 28 °F 20.7 °F 30.09 in West 11.9 mph 17.2 mph 73.7% 0.00 in 276 W/m2
13:14 28.4 °F 21.2 °F 30.09 in West 9.9 mph 18.4 mph 74% 0.00 in 299 W/m2
13:19 28.6 °F 21.3 °F 30.09 in West 9.6 mph 18.4 mph 73.8% 0.00 in 362 W/m2
13:24 28.9 °F 21.6 °F 30.09 in West 10 mph 14.9 mph 73.6% 0.00 in 360 W/m2
13:29 29 °F 21.6 °F 30.08 in West 9.2 mph 14.9 mph 73.5% 0.00 in 366 W/m2
13:34 29.2 °F 21.8 °F 30.09 in West 10.6 mph 14.9 mph 73.5% 0.00 in 415 W/m2
13:39 29 °F 21.8 °F 30.09 in West 11.3 mph 19.5 mph 74% 0.00 in 316 W/m2
13:44 29.1 °F 21.8 °F 30.09 in WNW 11 mph 19.5 mph 73.8% 0.00 in 299 W/m2
13:49 29.1 °F 21.9 °F 30.09 in WNW 9.3 mph 16.1 mph 74.2% 0.00 in 243 W/m2
13:54 29 °F 22 °F 30.09 in West 8.9 mph 14.9 mph 74.6% 0.00 in 216 W/m2
13:59 28.8 °F 21.9 °F 30.09 in WNW 9.8 mph 16.1 mph 74.8% 0.00 in 236 W/m2
14:04 28.9 °F 22.2 °F 30.09 in WNW 9.8 mph 16.1 mph 75.5% 0.00 in 322 W/m2
14:09 29 °F 22.2 °F 30.09 in WNW 10.1 mph 16.1 mph 75.5% 0.00 in 357 W/m2
14:14 29.2 °F 22.7 °F 30.09 in WNW 11.1 mph 18.4 mph 76.4% 0.00 in 429 W/m2
14:19 29.5 °F 23.1 °F 30.09 in WNW 11.5 mph 18.4 mph 76.7% 0.00 in 410 W/m2
14:24 29.4 °F 23.1 °F 30.09 in WNW 11.8 mph 17.2 mph 76.8% 0.00 in 330 W/m2
14:29 29.4 °F 23.3 °F 30.09 in West 10.3 mph 17.2 mph 77.6% 0.00 in 352 W/m2
14:34 29.3 °F 23.3 °F 30.09 in WNW 10.6 mph 16.1 mph 78% 0.00 in 193 W/m2
14:39 29 °F 23.3 °F 30.09 in WNW 10.3 mph 17.2 mph 78.9% 0.00 in 176 W/m2
14:44 28.8 °F 23.2 °F 30.09 in WNW 11.3 mph 17.2 mph 79.2% 0.00 in 148 W/m2
14:49 28.6 °F 23.2 °F 30.09 in WNW 8.2 mph 17.2 mph 79.8% 0.00 in 160 W/m2
14:54 28.7 °F 23.5 °F 30.09 in WNW 8.6 mph 14.9 mph 80.7% 0.00 in 190 W/m2
14:59 28.8 °F 23.5 °F 30.09 in WNW 9 mph 14.9 mph 80.3% 0.00 in 338 W/m2
15:04 29.2 °F 23.9 °F 30.08 in WNW 9.6 mph 16.1 mph 80.4% 0.00 in 309 W/m2
15:09 29.6 °F 24.1 °F 30.08 in WNW 9.1 mph 16.1 mph 79.7% 0.00 in 309 W/m2
15:14 29.6 °F 23.4 °F 30.08 in WNW 10.9 mph 14.9 mph 77.3% 0.00 in 220 W/m2
15:19 29.5 °F 23.2 °F 30.08 in WNW 10.3 mph 19.5 mph 77% 0.00 in 253 W/m2
15:24 29.9 °F 23.3 °F 30.08 in WNW 11.1 mph 19.5 mph 76% 0.00 in 239 W/m2
15:29 29.9 °F 23.2 °F 30.08 in WNW 10.5 mph 19.5 mph 75.6% 0.00 in 197 W/m2
15:34 29.8 °F 23.1 °F 30.08 in WNW 12.3 mph 19.5 mph 75.7% 0.00 in 197 W/m2
15:39 29.7 °F 23 °F 30.08 in West 9.2 mph 19.5 mph 75.7% 0.00 in 183 W/m2
15:44 29.6 °F 22.6 °F 30.08 in WNW 12.6 mph 20.7 mph 74.8% 0.00 in 149 W/m2
15:49 29.7 °F 22.4 °F 30.08 in West 10 mph 20.7 mph 74% 0.00 in 134 W/m2
15:54 29.6 °F 22.5 °F 30.08 in West 10.4 mph 19.5 mph 74.3% 0.00 in 116 W/m2
15:59 29.6 °F 22.4 °F 30.08 in West 9.7 mph 14.9 mph 74% 0.00 in 139 W/m2
16:04 29.7 °F 22.3 °F 30.08 in West 9.4 mph 17.2 mph 73.5% 0.00 in 142 W/m2
16:09 29.8 °F 22.3 °F 30.08 in West 8.4 mph 17.2 mph 73.3% 0.00 in 107 W/m2
16:14 29.7 °F 22.4 °F 30.08 in WNW 7.9 mph 12.6 mph 74% 0.00 in 107 W/m2
16:19 29.7 °F 22.5 °F 30.08 in WNW 8.8 mph 14.9 mph 74.2% 0.00 in 111 W/m2
16:24 29.5 °F 22.4 °F 30.08 in NW 7.8 mph 14.9 mph 74.5% 0.00 in 176 W/m2
16:29 29.5 °F 22.6 °F 30.08 in WNW 7.8 mph 13.8 mph 74.8% 0.00 in 186 W/m2
16:34 29.5 °F 22 °F 30.08 in WNW 7.4 mph 13.8 mph 73.2% 0.00 in 153 W/m2
16:39 29.4 °F 22.1 °F 30.08 in WNW 7.1 mph 11.5 mph 73.7% 0.00 in 160 W/m2
16:44 29.3 °F 21.8 °F 30.08 in WNW 7 mph 11.5 mph 73.3% 0.00 in 127 W/m2
16:49 29.3 °F 22 °F 30.08 in WNW 8.6 mph 13.8 mph 73.7% 0.00 in 118 W/m2
16:54 29.2 °F 21.6 °F 30.08 in WNW 8.2 mph 13.8 mph 73% 0.00 in 42 W/m2
16:59 29 °F 21.4 °F 30.08 in WNW 8.8 mph 13.8 mph 73% 0.00 in 33 W/m2
17:04 28.9 °F 21.4 °F 30.08 in WNW 8.4 mph 13.8 mph 73% 0.00 in 35 W/m2
17:09 28.7 °F 21.1 °F 30.08 in WNW 8.8 mph 13.8 mph 73% 0.00 in 28 W/m2
17:14 28.5 °F 21 °F 30.08 in WNW 8.2 mph 13.8 mph 73% 0.00 in 23 W/m2
17:19 28.3 °F 20.8 °F 30.08 in WNW 7.8 mph 12.6 mph 73% 0.00 in 18 W/m2
17:24 28.1 °F 20.6 °F 30.08 in WNW 6.9 mph 12.6 mph 73% 0.00 in 18 W/m2
17:29 28 °F 20.5 °F 30.08 in WNW 6.2 mph 11.5 mph 73% 0.00 in 12 W/m2
17:34 27.9 °F 20.4 °F 30.08 in WNW 7.1 mph 10.3 mph 73% 0.00 in 9 W/m2
17:39 27.8 °F 20.3 °F 30.08 in WNW 4.5 mph 9.2 mph 73% 0.00 in 5 W/m2
17:44 27.7 °F 20.2 °F 30.09 in WNW 4.4 mph 6.9 mph 73% 0.00 in 0 W/m2
17:49 27.5 °F 20 °F 30.09 in WNW 5.1 mph 9.2 mph 73% 0.00 in 0 W/m2
17:54 27.3 °F 19.8 °F 30.09 in WNW 4.3 mph 9.2 mph 73% 0.00 in 0 W/m2
17:59 27.2 °F 19.8 °F 30.09 in WNW 6 mph 9.2 mph 73.3% 0.00 in 0 W/m2
18:04 27 °F 19.8 °F 30.09 in WNW 5 mph 9.2 mph 73.8% 0.00 in 0 W/m2
18:09 26.8 °F 19.6 °F 30.09 in WNW 5.2 mph 8.1 mph 74% 0.00 in 0 W/m2
18:14 26.6 °F 19.4 °F 30.09 in WNW 5.1 mph 8.1 mph 74% 0.00 in 0 W/m2
18:19 26.2 °F 19.1 °F 30.10 in NW 4.6 mph 8.1 mph 74% 0.00 in 0 W/m2
18:24 26 °F 18.9 °F 30.10 in NW 5.7 mph 8.1 mph 74% 0.00 in 0 W/m2
18:29 25.8 °F 18.7 °F 30.10 in NW 4.4 mph 6.9 mph 74% 0.00 in 0 W/m2
18:34 25.5 °F 18.6 °F 30.10 in NW 3.9 mph 6.9 mph 74.7% 0.00 in 0 W/m2
18:39 25.2 °F 18.4 °F 30.10 in WNW 4 mph 5.8 mph 75% 0.00 in 0 W/m2
18:44 25 °F 18.2 °F 30.10 in WNW 4.1 mph 6.9 mph 75% 0.00 in 0 W/m2
18:49 24.8 °F 18 °F 30.10 in NW 4.6 mph 8.1 mph 75% 0.00 in 0 W/m2
18:54 24.6 °F 17.8 °F 30.10 in NW 4.7 mph 8.1 mph 75% 0.00 in 0 W/m2
18:59 24.4 °F 17.6 °F 30.10 in NW 3.2 mph 8.1 mph 75% 0.00 in 0 W/m2
19:04 24.2 °F 17.4 °F 30.10 in NW 3.3 mph 5.8 mph 75% 0.00 in 0 W/m2
19:09 24 °F 17.5 °F 30.10 in NW 4.1 mph 8.1 mph 75.9% 0.00 in 0 W/m2
19:14 23.7 °F 17.3 °F 30.10 in NW 3.2 mph 8.1 mph 76% 0.00 in 0 W/m2
19:19 23.5 °F 17.1 °F 30.10 in NW 3.5 mph 6.9 mph 76% 0.00 in 0 W/m2
19:24 23.3 °F 16.9 °F 30.10 in NW 4.2 mph 6.9 mph 76% 0.00 in 0 W/m2
19:29 23.1 °F 16.7 °F 30.10 in NW 4.4 mph 6.9 mph 76% 0.00 in 0 W/m2
19:34 23 °F 16.6 °F 30.10 in NW 4.1 mph 8.1 mph 76% 0.00 in 0 W/m2
19:39 22.8 °F 16.4 °F 30.10 in NW 4.5 mph 8.1 mph 76% 0.00 in 0 W/m2
19:44 22.7 °F 16.3 °F 30.10 in NW 5.1 mph 9.2 mph 76% 0.00 in 0 W/m2
19:49 22.7 °F 16.3 °F 30.10 in NW 5.1 mph 9.2 mph 76% 0.00 in 0 W/m2
19:54 22.7 °F 16.3 °F 30.10 in NW 4.3 mph 8.1 mph 76% 0.00 in 0 W/m2
19:59 22.6 °F 16.2 °F 30.10 in WNW 4.4 mph 6.9 mph 76% 0.00 in 0 W/m2
20:04 22.6 °F 16.2 °F 30.10 in WNW 4.7 mph 8.1 mph 76% 0.00 in 0 W/m2
20:09 22.5 °F 16.1 °F 30.10 in WNW 4.1 mph 8.1 mph 76% 0.00 in 0 W/m2
20:14 22.4 °F 16 °F 30.10 in WNW 4.3 mph 6.9 mph 76% 0.00 in 0 W/m2
20:19 22.3 °F 15.9 °F 30.10 in WNW 4.3 mph 6.9 mph 76% 0.00 in 0 W/m2
20:24 22.2 °F 15.8 °F 30.10 in WNW 4.4 mph 6.9 mph 76% 0.00 in 0 W/m2
20:29 22.2 °F 15.8 °F 30.11 in WNW 3.7 mph 6.9 mph 76% 0.00 in 0 W/m2
20:34 22.1 °F 15.7 °F 30.11 in WNW 4.2 mph 6.9 mph 76% 0.00 in 0 W/m2
20:39 22 °F 15.6 °F 30.11 in WNW 2.8 mph 5.8 mph 76% 0.00 in 0 W/m2
20:44 22 °F 15.6 °F 30.10 in WNW 2.5 mph 4.6 mph 76% 0.00 in 0 W/m2
20:49 21.9 °F 15.5 °F 30.11 in WNW 2.7 mph 4.6 mph 76% 0.00 in 0 W/m2
20:54 21.8 °F 15.4 °F 30.11 in WNW 2.3 mph 4.6 mph 76% 0.00 in 0 W/m2
20:59 21.7 °F 15.3 °F 30.11 in WNW 2.7 mph 4.6 mph 76% 0.00 in 0 W/m2
21:04 21.5 °F 15.1 °F 30.11 in WNW 3.4 mph 5.8 mph 76% 0.00 in 0 W/m2
21:09 21.3 °F 14.9 °F 30.11 in West 2.9 mph 5.8 mph 76% 0.00 in 0 W/m2
21:14 21.2 °F 14.8 °F 30.11 in West 2.2 mph 5.8 mph 76.1% 0.00 in 0 W/m2
21:19 21.1 °F 15 °F 30.11 in West 2.7 mph 4.6 mph 77% 0.00 in 0 W/m2
21:24 21 °F 14.9 °F 30.11 in West 2.5 mph 5.8 mph 77% 0.00 in 0 W/m2
21:29 20.9 °F 14.8 °F 30.11 in WNW 3.1 mph 5.8 mph 77% 0.00 in 0 W/m2
21:34 20.8 °F 14.7 °F 30.11 in WNW 3 mph 5.8 mph 77% 0.00 in 0 W/m2
21:39 20.7 °F 14.6 °F 30.11 in WNW 3.1 mph 4.6 mph 77% 0.00 in 0 W/m2
21:44 20.6 °F 14.5 °F 30.11 in West 2.8 mph 4.6 mph 77% 0.00 in 0 W/m2
21:49 20.5 °F 14.4 °F 30.11 in West 1.4 mph 4.6 mph 77% 0.00 in 0 W/m2
21:54 20.4 °F 14.3 °F 30.11 in West 0.8 mph 4.6 mph 77% 0.00 in 0 W/m2
21:59 20.3 °F 14.3 °F 30.11 in West 2 mph 4.6 mph 77% 0.00 in 0 W/m2
22:04 20.2 °F 14.2 °F 30.11 in West 1.7 mph 4.6 mph 77% 0.00 in 0 W/m2
22:09 20.1 °F 14.1 °F 30.11 in West 0.2 mph 3.4 mph 77% 0.00 in 0 W/m2
22:14 19.9 °F 14.2 °F 30.11 in West 1.9 mph 4.6 mph 78% 0.00 in 0 W/m2
22:19 19.8 °F 14.1 °F 30.11 in West 0.6 mph 4.6 mph 78% 0.00 in 0 W/m2
22:24 19.6 °F 13.9 °F 30.11 in West 2.5 mph 3.4 mph 78% 0.00 in 0 W/m2
22:29 19.4 °F 13.7 °F 30.11 in West 2.2 mph 3.4 mph 78% 0.00 in 0 W/m2
22:34 19.3 °F 13.6 °F 30.11 in West 1.6 mph 3.4 mph 78% 0.00 in 0 W/m2
22:39 19.2 °F 13.8 °F 30.11 in West 2.2 mph 3.4 mph 79% 0.00 in 0 W/m2
22:44 19.1 °F 13.7 °F 30.11 in West 2.5 mph 4.6 mph 79% 0.00 in 0 W/m2
22:49 19 °F 13.6 °F 30.11 in West 1.9 mph 4.6 mph 79% 0.00 in 0 W/m2
22:54 18.9 °F 13.5 °F 30.11 in West 2.4 mph 5.8 mph 79% 0.00 in 0 W/m2
22:59 18.9 °F 13.5 °F 30.11 in West 2.6 mph 5.8 mph 79% 0.00 in 0 W/m2
23:04 18.8 °F 13.4 °F 30.11 in West 2 mph 4.6 mph 79% 0.00 in 0 W/m2
23:09 18.8 °F 13.4 °F 30.11 in West 2.5 mph 4.6 mph 79.1% 0.00 in 0 W/m2
23:14 18.7 °F 13.6 °F 30.11 in West 2.6 mph 4.6 mph 80% 0.00 in 0 W/m2
23:19 18.7 °F 13.6 °F 30.10 in WNW 4.3 mph 5.8 mph 80% 0.00 in 0 W/m2
23:24 18.7 °F 13.6 °F 30.10 in WNW 3.7 mph 6.9 mph 80% 0.00 in 0 W/m2
23:29 18.7 °F 13.6 °F 30.10 in WNW 3.8 mph 6.9 mph 80% 0.00 in 0 W/m2
23:34 18.7 °F 13.6 °F 30.10 in WNW 4.2 mph 6.9 mph 80% 0.00 in 0 W/m2
23:39 18.7 °F 13.6 °F 30.10 in NW 3.9 mph 6.9 mph 80% 0.00 in 0 W/m2
23:44 18.6 °F 13.5 °F 30.10 in WNW 4.1 mph 6.9 mph 80% 0.00 in 0 W/m2
23:49 18.6 °F 13.5 °F 30.10 in WNW 4.3 mph 8.1 mph 80% 0.00 in 0 W/m2
23:54 18.7 °F 13.6 °F 30.10 in West 3.4 mph 8.1 mph 80% 0.00 in 0 W/m2
23:59 18.7 °F 13.7 °F 30.10 in West 3.6 mph 5.8 mph 80.2% 0.00 in 0 W/m2
Peotne Weather
Compliments of Weather Underground - 4 mb